Time;durP1;ratioP1;P1;durP2;ratioP2;P2;SDS_P1;SDS_P2;PMS_P1;PMS_P2;Temp;Humidity;BMP_temperature;BMP_pressure;BME280_temperature;BME280_humidity;BME280_pressure;Samples;Min_cycle;Max_cycle;Signal;HPM_P1;HPM_P2
2021/03/07 00:00:00;;;;;;;25.17;14.63;;;;;;;-2.34;100.00;102967.72;5042742;28;20057;-66
2021/03/07 00:02:27;;;;;;;26.45;15.50;;;;;;;-2.34;100.00;102959.81;5040838;28;20060;-63
2021/03/07 00:04:54;;;;;;;31.05;14.23;;;;;;;-2.35;100.00;102958.09;5043695;28;20052;-65
2021/03/07 00:07:20;;;;;;;29.98;15.77;;;;;;;-2.41;100.00;102958.97;5039724;28;20049;-64
2021/03/07 00:09:45;;;;;;;30.70;16.10;;;;;;;-2.45;100.00;102961.59;5042527;28;20057;-66
2021/03/07 00:12:11;;;;;;;26.00;15.85;;;;;;;-2.55;100.00;102958.94;5043288;28;20084;-66
2021/03/07 00:14:37;;;;;;;27.08;16.55;;;;;;;-2.50;100.00;102954.56;5043369;28;20490;-64
2021/03/07 00:17:03;;;;;;;29.63;15.55;;;;;;;-2.59;100.00;102954.59;5041418;28;20057;-63
2021/03/07 00:19:29;;;;;;;31.30;16.10;;;;;;;-2.63;100.00;102958.09;5042830;28;20144;-63
2021/03/07 00:21:56;;;;;;;25.35;15.60;;;;;;;-2.65;100.00;102954.56;5041126;28;20129;-63
2021/03/07 00:24:22;;;;;;;28.05;16.42;;;;;;;-2.67;100.00;102951.91;5042638;28;20456;-64
2021/03/07 00:26:48;;;;;;;26.17;15.45;;;;;;;-2.65;100.00;102955.47;5041424;28;20498;-64
2021/03/07 00:29:14;;;;;;;25.77;14.95;;;;;;;-2.69;100.00;102952.81;5043029;28;20136;-64
2021/03/07 00:31:40;;;;;;;25.23;13.60;;;;;;;-2.70;100.00;102951.06;5040842;28;20576;-61
2021/03/07 00:34:06;;;;;;;21.25;12.93;;;;;;;-2.75;100.00;102945.78;5040427;28;20669;-65
2021/03/07 00:36:31;;;;;;;23.67;13.63;;;;;;;-2.77;100.00;102950.16;5041706;28;20128;-64
2021/03/07 00:38:58;;;;;;;22.60;12.68;;;;;;;-2.76;100.00;102951.06;5039820;28;20075;-63
2021/03/07 00:41:24;;;;;;;21.67;13.05;;;;;;;-2.78;100.00;102944.88;5040725;28;20040;-65
2021/03/07 00:43:50;;;;;;;23.15;12.77;;;;;;;-2.79;100.00;102944.03;5041532;28;20110;-63
2021/03/07 00:46:16;;;;;;;19.75;11.90;;;;;;;-2.80;100.00;102944.03;5041688;28;20304;-64
2021/03/07 00:48:42;;;;;;;20.20;10.77;;;;;;;-2.82;100.00;102936.13;5039874;28;20088;-65
2021/03/07 00:51:08;;;;;;;18.75;11.23;;;;;;;-2.83;100.00;102932.59;5041033;28;20049;-63
2021/03/07 00:53:34;;;;;;;17.48;10.93;;;;;;;-2.84;100.00;102938.75;5043029;28;20053;-65
2021/03/07 00:56:01;;;;;;;17.55;10.32;;;;;;;-2.89;100.00;102939.63;5041058;28;20052;-63
2021/03/07 00:58:27;;;;;;;19.58;11.45;;;;;;;-2.86;100.00;102937.84;5083120;22;20060;-62
2021/03/07 01:00:53;;;;;;;17.52;10.43;;;;;;;-2.82;100.00;102933.47;5075489;28;20094;-61
2021/03/07 01:03:19;;;;;;;16.83;11.85;;;;;;;-2.78;100.00;102939.63;5074721;28;20101;-64
2021/03/07 01:05:45;;;;;;;25.10;12.15;;;;;;;-2.90;100.00;102932.56;5074619;28;20127;-65
2021/03/07 01:08:11;;;;;;;25.08;12.57;;;;;;;-2.90;100.00;102925.56;5072896;28;20053;-64
2021/03/07 01:10:39;;;;;;;25.48;13.35;;;;;;;-2.93;100.00;102928.22;5066303;28;20049;-65
2021/03/07 01:13:08;;;;;;;18.08;11.88;;;;;;;-2.91;100.00;102920.31;5073637;28;20155;-63
2021/03/07 01:15:34;;;;;;;23.30;12.60;;;;;;;-2.87;100.00;102922.94;5074510;28;20061;-65
2021/03/07 01:18:00;;;;;;;18.42;12.05;;;;;;;-2.96;100.00;102922.91;5073428;28;20055;-63
2021/03/07 01:20:27;;;;;;;19.13;12.43;;;;;;;-3.11;100.00;102912.38;5071845;28;20124;-63
2021/03/07 01:22:53;;;;;;;20.17;11.80;;;;;;;-3.12;100.00;102921.13;5077373;28;20036;-63
2021/03/07 01:25:41;;;;;;;20.48;11.68;;;;;;;-3.12;100.00;102916.75;5085272;22;20070;-65
2021/03/07 01:28:08;;;;;;;19.70;12.07;;;;;;;-3.12;100.00;102915.88;5034622;28;20057;-63
2021/03/07 01:30:36;;;;;;;21.60;13.07;;;;;;;-3.21;100.00;102912.34;5044343;28;20060;-65
2021/03/07 01:33:03;;;;;;;19.55;11.32;;;;;;;-3.25;100.00;102915.84;5059145;28;20052;-65
2021/03/07 01:35:29;;;;;;;16.17;9.30;;;;;;;-3.25;100.00;102904.44;5061009;28;20045;-64
2021/03/07 01:37:55;;;;;;;12.70;8.57;;;;;;;-3.15;100.00;102907.97;5059591;28;20060;-64
2021/03/07 01:40:26;;;;;;;17.05;8.75;;;;;;;-3.13;100.00;102893.06;5060681;28;20520;-64
2021/03/07 01:42:53;;;;;;;18.00;9.27;;;;;;;-3.18;100.00;102900.91;5060693;28;20057;-63
2021/03/07 01:45:21;;;;;;;19.23;9.75;;;;;;;-3.23;100.00;102893.00;5059992;28;20501;-64
2021/03/07 01:47:49;;;;;;;16.55;10.00;;;;;;;-3.22;100.00;102897.41;5060100;28;20440;-64
2021/03/07 01:50:18;;;;;;;17.08;10.07;;;;;;;-3.25;100.00;102883.38;5059609;28;20409;-64
2021/03/07 01:52:44;;;;;;;14.80;9.45;;;;;;;-3.21;100.00;102877.22;5060330;28;20055;-64
2021/03/07 01:55:11;;;;;;;15.25;8.00;;;;;;;-3.14;100.00;102886.03;5060335;28;20122;-63
2021/03/07 01:57:38;;;;;;;17.00;9.70;;;;;;;-3.19;100.00;102873.72;5059665;28;20036;-63
2021/03/07 02:00:07;;;;;;;17.98;8.55;;;;;;;-3.30;100.00;102869.31;5058694;28;20135;-65
2021/03/07 02:02:34;;;;;;;16.73;9.65;;;;;;;-3.35;100.00;102871.94;5059893;28;20128;-64
2021/03/07 02:05:00;;;;;;;17.00;9.23;;;;;;;-3.32;100.00;102869.31;5059531;28;20524;-65
2021/03/07 02:07:26;;;;;;;16.08;8.75;;;;;;;-3.40;100.00;102863.13;5058852;28;20056;-63
2021/03/07 02:09:52;;;;;;;13.23;8.63;;;;;;;-3.43;100.00;102852.59;5060727;28;20135;-63
2021/03/07 02:12:20;;;;;;;13.85;8.07;;;;;;;-3.40;100.00;102842.06;5058533;28;20053;-63
2021/03/07 02:14:51;;;;;;;14.30;8.35;;;;;;;-3.40;100.00;102847.34;5059198;28;20108;-65
2021/03/07 02:17:17;;;;;;;14.30;8.25;;;;;;;-3.43;100.00;102840.34;5059322;28;20052;-63
2021/03/07 02:19:44;;;;;;;13.32;8.23;;;;;;;-3.39;100.00;102843.84;5059509;28;20498;-63
2021/03/07 02:22:17;;;;;;;12.40;7.57;;;;;;;-3.36;100.00;102843.84;5059738;28;20057;-64
2021/03/07 02:24:44;;;;;;;15.50;8.02;;;;;;;-3.34;100.00;102842.13;5058715;28;20053;-64
2021/03/07 02:27:10;;;;;;;15.32;7.18;;;;;;;-3.47;100.00;102830.69;5058673;28;20524;-65
2021/03/07 02:29:36;;;;;;;12.93;7.68;;;;;;;-3.53;100.00;102828.03;5060548;28;20076;-63
2021/03/07 02:32:06;;;;;;;12.18;6.88;;;;;;;-3.48;100.00;102822.78;5059341;28;20064;-64
2021/03/07 02:34:35;;;;;;;14.13;7.22;;;;;;;-3.42;100.00;102823.66;5057580;28;20456;-63
2021/03/07 02:37:03;;;;;;;11.85;7.30;;;;;;;-3.52;100.00;102817.50;5058843;28;20498;-63
2021/03/07 02:39:31;;;;;;;13.57;7.63;;;;;;;-3.55;100.00;102820.13;5058841;28;20048;-63
2021/03/07 02:42:03;;;;;;;16.58;8.05;;;;;;;-3.60;100.00;102823.63;5059583;28;20052;-64
2021/03/07 02:44:32;;;;;;;12.50;7.80;;;;;;;-3.69;100.00;102813.97;5059650;28;20045;-64
2021/03/07 02:47:00;;;;;;;17.17;7.57;;;;;;;-3.72;100.00;102816.59;5058965;28;20098;-64
2021/03/07 02:49:27;;;;;;;15.43;7.80;;;;;;;-3.72;100.00;102808.69;5060020;28;20297;-64
2021/03/07 02:51:54;;;;;;;13.32;8.45;;;;;;;-3.70;100.00;102806.94;5058696;28;20041;-65
2021/03/07 02:54:22;;;;;;;11.48;7.78;;;;;;;-3.65;100.00;102806.94;5059828;28;20040;-64
2021/03/07 02:56:52;;;;;;;13.10;7.70;;;;;;;-3.69;100.00;102806.06;5058135;28;20057;-63
2021/03/07 02:59:20;;;;;;;;;;;;;;;-3.63;100.00;102803.44;5060610;28;20075;-64
2021/03/07 03:01:48;;;;;;;10.85;5.97;;;;;;;-3.67;100.00;102799.03;5058450;28;20287;-62
2021/03/07 03:04:14;;;;;;;13.93;7.07;;;;;;;-3.70;100.00;102796.41;5058408;28;20052;-65
2021/03/07 03:06:42;;;;;;;11.73;6.95;;;;;;;-3.74;100.00;102799.91;5058265;28;20415;-64
2021/03/07 03:09:11;;;;;;;13.70;6.95;;;;;;;-3.78;100.00;102799.03;5058667;28;20048;-63
2021/03/07 03:11:40;;;;;;;15.02;7.78;;;;;;;-3.84;100.00;102798.13;5059659;28;20075;-65
2021/03/07 03:14:08;;;;;;;13.90;7.50;;;;;;;-3.87;100.00;102799.00;5058140;28;20387;-65
2021/03/07 03:16:36;;;;;;;12.75;8.02;;;;;;;-3.87;100.00;102788.50;5059915;28;20075;-63
2021/03/07 03:19:06;;;;;;;18.98;7.90;;;;;;;-3.90;100.00;102784.09;5058704;28;20436;-65
2021/03/07 03:21:32;;;;;;;16.05;9.02;;;;;;;-3.89;100.00;102791.13;5060035;28;20056;-63
2021/03/07 03:23:58;;;;;;;15.43;7.60;;;;;;;-3.90;100.00;102791.09;5060007;28;20517;-62
2021/03/07 03:26:25;;;;;;;12.80;7.00;;;;;;;-3.96;100.00;102781.44;5058000;28;20044;-64
2021/03/07 03:28:52;;;;;;;12.90;7.70;;;;;;;-4.02;100.00;102783.16;5059418;28;20421;-63
2021/03/07 03:31:18;;;;;;;18.50;8.05;;;;;;;-4.02;100.00;102776.13;5059042;28;20059;-65
2021/03/07 03:33:45;;;;;;;18.77;7.78;;;;;;;-3.99;100.00;102781.44;5059040;28;20063;-64
2021/03/07 03:36:11;;;;;;;15.25;7.53;;;;;;;-3.97;100.00;102776.19;5059033;28;20056;-64
2021/03/07 03:38:40;;;;;;;15.30;8.02;;;;;;;-3.98;100.00;102780.53;5059536;28;20072;-62
2021/03/07 03:41:09;;;;;;;12.82;7.28;;;;;;;-3.97;100.00;102779.69;5060603;28;20060;-63
2021/03/07 03:43:57;;;;;;;15.93;7.22;;;;;;;-4.02;100.00;102781.41;5093189;22;20060;-64
2021/03/07 03:46:24;;;;;;;15.50;8.40;;;;;;;-4.08;100.00;102778.75;4996962;28;20046;-63
2021/03/07 03:48:56;;;;;;;12.85;7.40;;;;;;;-4.11;100.00;102779.66;4996205;28;20049;-64
2021/03/07 03:51:24;;;;;;;15.55;7.85;;;;;;;-4.12;100.00;102776.97;4997665;28;20066;-64
2021/03/07 03:53:52;;;;;;;15.18;8.05;;;;;;;-4.14;100.00;102762.97;5000358;28;20058;-64
2021/03/07 03:56:20;;;;;;;15.60;8.38;;;;;;;-4.11;100.00;102768.22;5000241;28;20062;-65
2021/03/07 03:58:47;;;;;;;16.70;8.25;;;;;;;-4.10;100.00;102770.00;5000472;28;20400;-65
2021/03/07 04:01:18;;;;;;;16.17;8.73;;;;;;;-4.10;100.00;102770.00;4999466;28;20411;-63
2021/03/07 04:03:48;;;;;;;15.23;8.93;;;;;;;-4.14;100.00;102763.84;5000400;28;20581;-63
2021/03/07 04:06:19;;;;;;;16.95;8.80;;;;;;;-4.17;100.00;102762.97;4998381;28;20042;-63
2021/03/07 04:08:45;;;;;;;15.10;9.20;;;;;;;-4.15;100.00;102758.56;4999639;28;20053;-63
2021/03/07 04:11:12;;;;;;;16.60;8.98;;;;;;;-4.16;100.00;102764.72;4999330;28;20053;-64
2021/03/07 04:13:38;;;;;;;16.48;8.98;;;;;;;-4.19;100.00;102760.31;4999415;28;20049;-65
2021/03/07 04:16:05;;;;;;;13.15;7.85;;;;;;;-4.20;100.00;102768.22;4994888;28;20054;-64
2021/03/07 04:18:32;;;;;;;17.98;9.30;;;;;;;-4.22;100.00;102771.69;4998123;28;20061;-63
2021/03/07 04:21:01;;;;;;;15.27;8.93;;;;;;;-4.07;100.00;102770.88;4998884;28;20058;-63
2021/03/07 04:23:28;;;;;;;16.40;9.55;;;;;;;-3.99;100.00;102776.19;4998726;28;20045;-63
2021/03/07 04:25:54;;;;;;;18.70;9.40;;;;;;;-4.10;100.00;102772.63;5001370;28;20054;-65
2021/03/07 04:28:27;;;;;;;16.67;9.13;;;;;;;-4.08;100.00;102773.50;5071125;23;20058;-64
2021/03/07 04:30:54;;;;;;;19.40;10.43;;;;;;;-4.11;100.00;102770.84;5057455;28;20048;-64
2021/03/07 04:33:20;;;;;;;22.25;10.23;;;;;;;-4.05;100.00;102761.25;5058350;28;20067;-63
2021/03/07 04:35:46;;;;;;;17.63;9.30;;;;;;;-4.00;100.00;102779.69;5062294;28;20045;-63
2021/03/07 04:38:13;;;;;;;18.90;9.65;;;;;;;-3.98;100.00;102770.03;5059433;28;20391;-63
2021/03/07 04:40:42;;;;;;;19.58;10.27;;;;;;;-4.14;100.00;102768.22;5062482;28;20045;-63
2021/03/07 04:43:08;;;;;;;13.68;8.73;;;;;;;-4.20;100.00;102768.22;5058358;28;20545;-64
2021/03/07 04:45:35;;;;;;;23.13;9.38;;;;;;;-4.23;100.00;102766.44;5061702;28;20049;-64
2021/03/07 04:48:01;;;;;;;20.95;9.85;;;;;;;-4.26;100.00;102769.94;5058495;28;20044;-62
2021/03/07 04:50:27;;;;;;;21.15;10.63;;;;;;;-4.26;100.00;102763.81;5061264;28;20045;-64
2021/03/07 04:52:53;;;;;;;21.55;11.00;;;;;;;-4.24;100.00;102762.94;5059450;28;20498;-63
2021/03/07 04:55:19;;;;;;;20.33;10.68;;;;;;;-4.18;100.00;102761.19;5060142;28;20049;-62
2021/03/07 04:57:46;;;;;;;18.17;10.35;;;;;;;-4.18;100.00;102755.94;5060809;28;20093;-63
2021/03/07 05:00:15;;;;;;;20.05;10.50;;;;;;;-4.12;100.00;102755.94;5058526;28;20463;-64
2021/03/07 05:02:41;;;;;;;22.70;10.43;;;;;;;-4.12;100.00;102755.94;5061417;28;20052;-64
2021/03/07 05:05:08;;;;;;;19.58;11.30;;;;;;;-4.13;100.00;102754.22;5059924;28;20079;-65
2021/03/07 05:07:34;;;;;;;19.67;9.73;;;;;;;-4.08;100.00;102758.63;5060619;28;20073;-64
2021/03/07 05:10:00;;;;;;;21.30;10.10;;;;;;;-4.10;100.00;102754.22;5060372;28;20040;-62
2021/03/07 05:14:56;;;;;;;16.92;10.50;;;;;;;-4.00;100.00;102756.00;5035006;22;20079;-64
2021/03/07 05:17:24;;;;;;;18.75;10.50;;;;;;;-3.93;100.00;102749.00;5078765;28;20056;-64
2021/03/07 05:19:50;;;;;;;20.38;11.30;;;;;;;-3.88;100.00;102749.88;5081162;28;20067;-64
2021/03/07 05:22:16;;;;;;;19.40;10.68;;;;;;;-3.79;100.00;102751.66;5080408;28;20228;-64
2021/03/07 05:24:42;;;;;;;22.52;10.45;;;;;;;-3.66;100.00;102748.16;5079671;28;20053;-64
2021/03/07 05:27:08;;;;;;;16.98;9.52;;;;;;;-3.56;100.00;102746.44;5077788;28;20052;-63
2021/03/07 05:29:34;;;;;;;16.67;9.23;;;;;;;-3.58;100.00;102743.81;5079841;28;20056;-63
2021/03/07 05:32:01;;;;;;;14.95;9.98;;;;;;;-3.55;100.00;102749.06;5080907;28;20043;-64
2021/03/07 05:34:28;;;;;;;17.48;10.00;;;;;;;-3.55;100.00;102746.44;5077761;28;20375;-63
2021/03/07 05:36:54;;;;;;;12.18;8.95;;;;;;;-3.57;100.00;102745.53;5079736;28;20056;-64
2021/03/07 05:39:20;;;;;;;17.48;9.05;;;;;;;-3.49;100.00;102742.91;5079190;28;20123;-62
2021/03/07 05:41:46;;;;;;;15.70;9.02;;;;;;;-3.40;100.00;102740.28;5079491;28;20040;-64
2021/03/07 05:44:12;;;;;;;15.85;9.50;;;;;;;-3.32;100.00;102740.28;5078167;28;20123;-64
2021/03/07 05:46:39;;;;;;;14.80;9.50;;;;;;;-3.20;100.00;102740.25;5080077;28;20036;-63
2021/03/07 05:49:06;;;;;;;15.68;9.88;;;;;;;-3.13;100.00;102738.53;5078036;28;20122;-63
2021/03/07 05:51:32;;;;;;;17.85;9.82;;;;;;;-3.09;100.00;102735.00;5078594;28;20489;-62
2021/03/07 05:53:58;;;;;;;18.95;10.00;;;;;;;-3.00;100.00;102734.13;5079412;28;20053;-62
2021/03/07 05:56:25;;;;;;;17.63;9.63;;;;;;;-2.97;100.00;102728.84;5078832;28;20045;-63
2021/03/07 05:58:53;;;;;;;15.02;9.43;;;;;;;-3.01;100.00;102735.00;5077811;28;20051;-63
2021/03/07 06:01:19;;;;;;;17.90;9.52;;;;;;;-2.84;100.00;102727.94;5078905;28;20040;-63
2021/03/07 06:03:45;;;;;;;19.45;9.55;;;;;;;-2.78;100.00;102731.41;5078390;28;20040;-62
2021/03/07 06:06:12;;;;;;;17.20;9.00;;;;;;;-2.66;100.00;102726.13;5080763;28;20408;-63
2021/03/07 06:08:38;;;;;;;15.77;9.60;;;;;;;-2.53;100.00;102717.28;5078269;28;20052;-64
2021/03/07 06:11:04;;;;;;;16.25;9.55;;;;;;;-2.64;100.00;102719.06;5076322;28;20071;-63
2021/03/07 06:13:37;;;;;;;22.55;10.63;;;;;;;-2.58;100.00;102720.81;5079618;28;20059;-64
2021/03/07 06:16:07;;;;;;;15.43;8.95;;;;;;;-2.50;100.00;102716.41;5076671;28;20131;-63
2021/03/07 06:18:39;;;;;;;15.07;9.15;;;;;;;-2.56;100.00;102709.41;5078937;28;20078;-63
2021/03/07 06:21:30;;;;;;;14.05;9.80;;;;;;;-2.60;100.00;102715.56;5078311;28;20052;-64
2021/03/07 06:27:03;;;;;;;17.35;9.90;;;;;;;-2.45;100.00;102716.38;5100602;22;20514;-63
2021/03/07 06:29:29;;;;;;;15.43;9.95;;;;;;;-2.36;100.00;102711.06;5100250;28;20480;-63
2021/03/07 06:31:55;;;;;;;15.07;9.77;;;;;;;-2.33;100.00;102709.25;5097950;28;20047;-64
2021/03/07 06:34:21;;;;;;;15.20;9.27;;;;;;;-2.25;100.00;102709.25;5097410;28;20056;-63
2021/03/07 06:36:48;;;;;;;17.80;10.88;;;;;;;-2.27;100.00;102708.38;5098676;28;20043;-63
2021/03/07 06:39:14;;;;;;;14.77;9.73;;;;;;;-2.26;100.00;102709.25;5097019;28;20043;-64
2021/03/07 06:41:40;;;;;;;14.05;9.73;;;;;;;-2.13;100.00;102692.47;5098492;28;20121;-64
2021/03/07 06:44:08;;;;;;;16.05;11.07;;;;;;;-2.00;100.00;102685.38;5097536;28;20048;-64
2021/03/07 06:46:36;;;;;;;15.48;11.20;;;;;;;-1.96;100.00;102690.63;5097917;28;20067;-64
2021/03/07 06:49:03;;;;;;;17.42;10.20;;;;;;;-2.03;100.00;102680.97;5098201;28;20043;-64
2021/03/07 06:51:31;;;;;;;18.65;10.30;;;;;;;-2.13;100.00;102685.44;5099457;28;20051;-64
2021/03/07 06:53:59;;;;;;;19.13;11.15;;;;;;;-2.13;100.00;102688.06;5097887;28;20047;-64
2021/03/07 06:56:43;;;;;;;13.60;9.67;;;;;;;-2.00;100.00;102675.69;5098654;28;20058;-63
2021/03/07 06:59:11;;;;;;;17.02;10.52;;;;;;;-1.82;100.00;102679.06;5098188;28;20354;-63
2021/03/07 07:01:42;;;;;;;15.98;11.15;;;;;;;-1.80;100.00;102678.16;5096605;28;20543;-64
2021/03/07 07:04:09;;;;;;;15.55;10.18;;;;;;;-1.87;100.00;102687.03;5098584;28;20044;-63
2021/03/07 07:06:36;;;;;;;19.58;11.10;;;;;;;-1.81;100.00;102679.06;5099081;28;20043;-64
2021/03/07 07:09:06;;;;;;;18.20;11.60;;;;;;;-1.83;100.00;102680.81;5097215;28;20043;-64
2021/03/07 07:11:44;;;;;;;20.00;12.07;;;;;;;-1.72;100.00;102677.22;5097735;28;20512;-63
2021/03/07 07:14:11;;;;;;;16.02;11.18;;;;;;;-1.57;100.00;102679.75;5098291;28;20048;-64
2021/03/07 07:16:37;;;;;;;22.60;11.57;;;;;;;-1.56;100.00;102673.59;5098558;28;20363;-63
2021/03/07 07:19:04;;;;;;;18.67;11.35;;;;;;;-1.49;100.00;102672.63;5097348;28;20416;-63
2021/03/07 07:21:30;;;;;;;19.40;11.48;;;;;;;-1.40;100.00;102676.94;5097506;28;20052;-65
2021/03/07 07:23:56;;;;;;;19.17;11.55;;;;;;;-1.36;100.00;102678.69;5097321;28;20093;-63
2021/03/07 07:26:23;;;;;;;17.15;11.82;;;;;;;-1.37;100.00;102681.34;5089071;28;20491;-63
2021/03/07 07:28:49;;;;;;;16.95;11.25;;;;;;;-1.16;100.00;102685.53;5076437;28;20060;-64
2021/03/07 07:31:18;;;;;;;17.48;12.05;;;;;;;-1.18;100.00;102682.03;5075937;28;20489;-64
2021/03/07 07:33:50;;;;;;;22.50;12.85;;;;;;;-0.96;100.00;102686.19;5077555;28;20048;-65
2021/03/07 07:36:23;;;;;;;19.88;12.45;;;;;;;-1.11;100.00;102687.22;5076721;28;20048;-63
2021/03/07 07:38:51;;;;;;;20.33;12.45;;;;;;;-1.04;100.00;102684.56;5077492;28;20059;-64
2021/03/07 07:41:33;;;;;;;22.30;11.90;;;;;;;-1.05;100.00;102681.00;5077150;28;20113;-65
2021/03/07 07:43:59;;;;;;;21.40;13.40;;;;;;;-0.92;100.00;102673.84;5077815;28;20048;-65
2021/03/07 07:46:26;;;;;;;20.73;13.57;;;;;;;-0.95;100.00;102681.78;5077481;28;20063;-63
2021/03/07 07:48:52;;;;;;;21.00;12.32;;;;;;;-0.73;100.00;102672.72;5076468;28;20463;-64
2021/03/07 07:51:34;;;;;;;18.67;12.43;;;;;;;-0.76;100.00;102685.97;5075565;28;20492;-63
2021/03/07 07:54:01;;;;;;;20.77;13.43;;;;;;;-0.69;100.00;102676.22;5075704;28;20048;-64
2021/03/07 07:56:39;;;;;;;19.30;12.05;;;;;;;-0.62;100.00;102679.63;5076102;28;20037;-66
2021/03/07 07:59:07;;;;;;;20.73;12.27;;;;;;;-0.38;100.00;102675.81;5075415;28;20169;-64
2021/03/07 08:01:54;;;;;;;22.13;11.95;;;;;;;-0.48;100.00;102680.34;5077478;28;20049;-64
2021/03/07 08:04:37;;;;;;;19.17;12.88;;;;;;;-0.45;100.00;102675.00;5077580;28;20056;-64
2021/03/07 08:07:05;;;;;;;19.73;12.27;;;;;;;-0.29;100.00;102672.16;5079871;28;20075;-66
2021/03/07 08:09:45;;;;;;;17.52;11.73;;;;;;;-0.06;100.00;102675.38;5080562;28;20524;-65
2021/03/07 08:12:52;;;;;;;16.63;11.85;;;;;;;-0.16;100.00;102691.38;5080199;28;20044;-64
2021/03/07 08:15:40;;;;;;;20.02;12.23;;;;;;;0.07;100.00;102688.41;5080734;28;20059;-64
2021/03/07 08:18:06;;;;;;;19.33;12.90;;;;;;;0.03;100.00;102684.03;5080082;28;20539;-66
2021/03/07 08:20:58;;;;;;;18.27;12.10;;;;;;;0.18;100.00;102681.19;5080196;28;20071;-65
2021/03/07 08:23:24;;;;;;;20.88;12.77;;;;;;;0.16;100.00;102681.19;5080762;28;20048;-66
2021/03/07 08:26:02;;;;;;;36.88;20.73;;;;;;;0.19;100.00;102669.66;5082618;28;20623;-65
2021/03/07 08:28:41;;;;;;;30.73;17.70;;;;;;;0.43;100.00;102672.84;5100941;28;20048;-66
2021/03/07 08:31:09;;;;;;;22.35;14.75;;;;;;;0.61;100.00;102677.81;5102298;28;20104;-66
2021/03/07 08:33:36;;;;;;;21.77;13.75;;;;;;;0.76;100.00;102673.13;5100978;28;20055;-66
2021/03/07 08:36:09;;;;;;;22.35;13.85;;;;;;;0.73;100.00;102675.84;5100767;28;20195;-64
2021/03/07 08:38:35;;;;;;;26.35;14.45;;;;;;;0.78;100.00;102676.63;5099758;28;20446;-66
2021/03/07 08:41:01;;;;;;;26.67;13.50;;;;;;;0.85;100.00;102667.66;5100166;28;20044;-64
2021/03/07 08:43:54;;;;;;;19.58;12.82;;;;;;;1.03;100.00;102661.13;5102042;28;20047;-65
2021/03/07 08:46:25;;;;;;;19.85;12.48;;;;;;;1.35;100.00;102667.56;5098600;28;20469;-65
2021/03/07 08:48:53;;;;;;;18.33;12.75;;;;;;;1.27;100.00;102659.78;5100700;28;20058;-66
2021/03/07 08:51:28;;;;;;;17.38;12.43;;;;;;;1.41;100.00;102651.50;5098463;28;20412;-63
2021/03/07 08:54:01;;;;;;;18.75;11.80;;;;;;;1.66;100.00;102650.97;5101700;28;20120;-65
2021/03/07 08:56:27;;;;;;;17.98;11.75;;;;;;;1.60;100.00;102651.97;5101272;28;20043;-65
2021/03/07 08:58:55;;;;;;;16.90;11.82;;;;;;;1.75;100.00;102649.00;5101001;28;20633;-64
2021/03/07 09:01:22;;;;;;;17.35;11.30;;;;;;;1.84;100.00;102647.03;5100378;28;20403;-65
2021/03/07 09:03:52;;;;;;;18.10;11.60;;;;;;;2.02;100.00;102638.63;5101594;28;20080;-64
2021/03/07 09:06:18;;;;;;;20.85;11.23;;;;;;;2.13;100.00;102634.84;5100478;28;20116;-64
2021/03/07 09:08:44;;;;;;;18.83;11.60;;;;;;;2.09;100.00;102634.03;5099336;28;20488;-65
2021/03/07 09:11:10;;;;;;;25.95;11.73;;;;;;;2.23;100.00;102631.91;5099862;28;20078;-63
2021/03/07 09:13:47;;;;;;;21.77;12.65;;;;;;;2.17;100.00;102626.75;5100292;28;20060;-66
2021/03/07 09:16:14;;;;;;;15.30;10.65;;;;;;;2.32;100.00;102630.81;5099192;28;20060;-65
2021/03/07 09:18:40;;;;;;;14.90;9.85;;;;;;;2.45;100.00;102629.56;5098678;28;20048;-64
2021/03/07 09:21:08;;;;;;;15.98;10.57;;;;;;;2.55;100.00;102632.00;5099134;28;20058;-66
2021/03/07 09:23:36;;;;;;;15.60;9.52;;;;;;;2.78;100.00;102634.03;5098576;28;20580;-66
2021/03/07 09:26:04;;;;;;;18.30;10.02;;;;;;;2.67;100.00;102639.66;5100427;28;20044;-66
2021/03/07 09:28:35;;;;;;;13.25;9.63;;;;;;;2.69;100.00;102637.81;5099673;28;20048;-64
2021/03/07 09:31:03;;;;;;;15.38;9.57;;;;;;;2.81;100.00;102633.94;5100306;28;20100;-65
2021/03/07 09:33:31;;;;;;;14.75;9.00;;;;;;;3.09;100.00;102634.06;5099982;28;20047;-65
2021/03/07 09:36:02;;;;;;;14.02;9.13;;;;;;;3.21;100.00;102630.19;5099553;28;20051;-65
2021/03/07 09:38:42;;;;;;;17.20;7.80;;;;;;;3.14;100.00;102634.78;5099168;28;20598;-64
2021/03/07 09:41:08;;;;;;;;;;;;;;;3.23;100.00;102638.97;5099481;28;20055;-65
2021/03/07 09:43:34;;;;;;;11.40;7.43;;;;;;;3.20;100.00;102635.56;5097248;28;19927;-66
2021/03/07 09:46:01;;;;;;;12.20;6.90;;;;;;;3.35;100.00;102626.25;5099259;28;20052;-65
2021/03/07 09:48:31;;;;;;;11.13;7.40;;;;;;;3.50;100.00;102631.09;5100209;28;20051;-65
2021/03/07 09:50:58;;;;;;;11.90;7.38;;;;;;;3.60;100.00;102635.22;5100935;28;20052;-63
2021/03/07 09:53:25;;;;;;;9.85;6.40;;;;;;;3.57;100.00;102629.13;5099728;28;20044;-65
2021/03/07 09:55:51;;;;;;;13.15;6.35;;;;;;;3.71;100.00;102628.69;5097875;28;20524;-64
2021/03/07 09:58:17;;;;;;;10.43;6.35;;;;;;;3.65;100.00;102637.72;5100094;28;20054;-64
2021/03/07 10:00:47;;;;;;;10.63;6.20;;;;;;;3.78;100.00;102628.44;5097227;28;20040;-66
2021/03/07 10:03:21;;;;;;;9.55;6.55;;;;;;;3.85;100.00;102623.78;5098810;28;20048;-66
2021/03/07 10:06:08;;;;;;;9.50;5.45;;;;;;;3.73;100.00;102613.53;5100109;28;20496;-65
2021/03/07 10:08:35;;;;;;;9.32;5.80;;;;;;;3.71;100.00;102615.38;5097915;28;20043;-65
2021/03/07 10:11:09;;;;;;;10.38;6.50;;;;;;;3.68;100.00;102621.66;5100008;28;20504;-65
2021/03/07 10:13:35;;;;;;;10.77;5.22;;;;;;;3.74;99.88;102625.91;5099716;28;20036;-66
2021/03/07 10:16:01;;;;;;;5.72;4.40;;;;;;;3.76;97.55;102613.44;5096730;28;20700;-66
2021/03/07 10:18:27;;;;;;;8.35;4.55;;;;;;;3.90;97.60;102621.88;5096169;28;20412;-66
2021/03/07 10:20:57;;;;;;;7.00;4.40;;;;;;;3.89;97.70;102608.56;5098638;28;20060;-65
2021/03/07 10:23:27;;;;;;;7.07;4.43;;;;;;;3.85;95.96;102614.00;5097976;28;20055;-66
2021/03/07 10:25:53;;;;;;;6.50;4.13;;;;;;;4.00;95.75;102611.78;5099066;28;20047;-65
2021/03/07 10:31:18;;;;;;;5.32;3.40;;;;;;;4.19;94.32;102607.56;5093055;22;20081;-66
2021/03/07 10:33:44;;;;;;;4.85;3.50;;;;;;;4.37;93.96;102610.53;5080054;28;20447;-65
2021/03/07 10:36:12;;;;;;;4.38;3.20;;;;;;;4.24;89.50;102604.75;5076546;28;20048;-66
2021/03/07 10:38:40;;;;;;;4.93;3.33;;;;;;;4.27;91.01;102603.75;5077413;28;20036;-65
2021/03/07 10:41:20;;;;;;;4.10;3.47;;;;;;;4.35;91.89;102607.91;5079090;28;20052;-66
2021/03/07 10:43:48;;;;;;;4.00;3.20;;;;;;;4.34;90.76;102605.31;5077750;28;20127;-66
2021/03/07 10:46:24;;;;;;;7.32;3.20;;;;;;;4.48;89.89;102597.72;5077855;28;20051;-64
2021/03/07 10:48:52;;;;;;;3.92;2.50;;;;;;;4.38;88.08;102607.81;5078236;28;20056;-67
2021/03/07 10:51:18;;;;;;;3.33;2.40;;;;;;;4.48;86.96;102603.03;5078035;28;20052;-67
2021/03/07 10:53:44;;;;;;;3.92;2.45;;;;;;;4.50;86.49;102595.84;5079006;28;20117;-65
2021/03/07 10:56:10;;;;;;;4.18;2.22;;;;;;;4.50;86.70;102595.84;5078837;28;20051;-66
2021/03/07 10:58:36;;;;;;;6.35;2.38;;;;;;;4.50;85.46;102594.97;5078078;28;20044;-66
2021/03/07 11:01:02;;;;;;;5.80;2.70;;;;;;;4.44;85.08;102596.06;5078914;28;20071;-65
2021/03/07 11:03:28;;;;;;;6.28;2.40;;;;;;;4.33;86.43;102593.78;5078916;28;20482;-66
2021/03/07 11:05:54;;;;;;;5.25;2.40;;;;;;;4.41;85.38;102595.31;5077485;28;20067;-66
2021/03/07 11:08:21;;;;;;;6.63;2.08;;;;;;;4.53;85.29;102595.75;5078093;28;20480;-65
2021/03/07 11:10:48;;;;;;;4.72;2.17;;;;;;;4.55;83.63;102599.22;5078818;28;20072;-64
2021/03/07 11:13:14;;;;;;;3.92;2.30;;;;;;;4.67;83.18;102594.41;5076752;28;20052;-65
2021/03/07 11:15:39;;;;;;;5.15;2.97;;;;;;;4.68;82.94;102593.44;5078498;28;20052;-66
2021/03/07 11:18:06;;;;;;;4.65;2.67;;;;;;;4.65;80.74;102588.22;5076844;28;20093;-64
2021/03/07 11:20:32;;;;;;;5.47;2.78;;;;;;;4.70;80.64;102591.63;5078131;28;20048;-64
2021/03/07 11:22:57;;;;;;;5.28;2.97;;;;;;;4.57;79.87;102589.38;5077067;28;20067;-66